createdAt,value
2023-06-26T00:00:35.112Z,86.84
2023-06-26T00:01:34.965Z,86.74
2023-06-26T00:02:34.742Z,86.64
2023-06-26T00:03:34.838Z,86.33
2023-06-26T00:04:35.422Z,86.33
2023-06-26T00:05:34.656Z,86.33
2023-06-26T00:06:34.668Z,86.64
2023-06-26T00:07:34.721Z,86.54
2023-06-26T00:08:34.714Z,86.64
2023-06-26T00:09:34.640Z,86.14
2023-06-26T00:10:34.711Z,85.94
2023-06-26T00:11:34.646Z,86.24
2023-06-26T00:12:34.583Z,85.94
2023-06-26T00:13:34.611Z,86.64
2023-06-26T00:14:34.572Z,86.74
2023-06-26T00:15:34.595Z,86.74
2023-06-26T00:16:34.516Z,87.24
2023-06-26T00:17:34.584Z,86.74
2023-06-26T00:18:34.485Z,86.64
2023-06-26T00:19:34.485Z,86.78
2023-06-26T00:20:34.467Z,86.98
2023-06-26T00:21:34.509Z,86.78
2023-06-26T00:22:34.467Z,86.44
2023-06-26T00:23:34.447Z,86.14
2023-06-26T00:24:34.429Z,85.74
2023-06-26T00:25:34.448Z,85.74
2023-06-26T00:26:34.433Z,85.53
2023-06-26T00:27:34.477Z,85.63
2023-06-26T00:28:34.448Z,85.44
2023-06-26T00:29:34.392Z,85.33
2023-06-26T00:30:34.372Z,85.33
2023-06-26T00:31:34.414Z,85.44
2023-06-26T00:32:34.416Z,85.33
2023-06-26T00:33:34.379Z,85.24
2023-06-26T00:34:34.332Z,85.24
2023-06-26T00:35:34.311Z,84.93
2023-06-26T00:36:34.313Z,84.83
2023-06-26T00:37:34.432Z,84.74
2023-06-26T00:38:34.351Z,85.03
2023-06-26T00:39:34.289Z,84.74
2023-06-26T00:40:34.328Z,84.43
2023-06-26T00:41:34.255Z,84.43
2023-06-26T00:42:34.282Z,84.63
2023-06-26T00:43:34.324Z,84.93
2023-06-26T00:44:34.237Z,84.74
2023-06-26T00:45:42.992Z,84.33
2023-06-26T00:46:34.214Z,84.43
2023-06-26T00:47:34.256Z,83.83
2023-06-26T00:48:34.207Z,83.79
2023-06-26T00:49:34.250Z,83.89
2023-06-26T00:50:34.180Z,83.89
2023-06-26T00:51:34.205Z,83.49
2023-06-26T00:52:34.209Z,83.19
2023-06-26T00:53:34.184Z,82.99
2023-06-26T00:54:34.114Z,82.99
2023-06-26T00:55:34.261Z,82.79
2023-06-26T00:56:34.156Z,82.89
2023-06-26T00:57:34.099Z,82.69
2023-06-26T00:58:34.137Z,82.79
2023-06-26T00:59:34.050Z,82.39
2023-06-26T01:00:34.164Z,82.69
2023-06-26T01:01:34.038Z,82.49
2023-06-26T01:02:34.076Z,82.69
2023-06-26T01:03:34.208Z,82.39
2023-06-26T01:04:34.087Z,82.18
2023-06-26T01:05:33.992Z,81.88
2023-06-26T01:06:34.071Z,81.79
2023-06-26T01:07:34.096Z,81.18
2023-06-26T01:08:33.949Z,80.88
2023-06-26T01:09:33.942Z,80.65
2023-06-26T01:10:33.953Z,81.55
2023-06-26T01:11:34.070Z,80.74
2023-06-26T01:12:33.945Z,81.29
2023-06-26T01:13:33.902Z,80.35
2023-06-26T01:14:33.925Z,80.35
2023-06-26T01:15:33.884Z,80.74
2023-06-26T01:16:33.890Z,80.44
2023-06-26T01:17:33.887Z,80.74
2023-06-26T01:18:33.851Z,80.54
2023-06-26T01:19:33.840Z,80.04
2023-06-26T01:20:33.853Z,81.18
2023-06-26T01:21:34.222Z,81.09
2023-06-26T01:22:33.835Z,80.79
2023-06-26T01:23:33.810Z,80.88
2023-06-26T01:24:33.850Z,80.48
2023-06-26T01:25:33.924Z,80.18
2023-06-26T01:26:33.807Z,80.58
2023-06-26T01:27:33.853Z,80.48
2023-06-26T01:28:33.998Z,80.68
2023-06-26T01:29:33.953Z,80.48
2023-06-26T01:30:33.949Z,80.68
2023-06-26T01:31:34.011Z,80.92
2023-06-26T01:32:33.875Z,80.32
2023-06-26T01:33:33.758Z,80.92
2023-06-26T01:34:33.716Z,80.82
2023-06-26T01:35:34.234Z,80.32
2023-06-26T01:36:33.998Z,81.02
2023-06-26T01:37:34.912Z,80.52
2023-06-26T01:38:33.998Z,80.72
2023-06-26T01:39:33.979Z,80.02
2023-06-26T01:40:33.653Z,80.62
2023-06-26T01:41:34.268Z,80.82
2023-06-26T01:42:33.692Z,80.82
2023-06-26T01:43:33.986Z,80.72
2023-06-26T01:44:33.660Z,80.52
2023-06-26T01:45:33.704Z,81.32
2023-06-26T01:46:36.220Z,81.42
2023-06-26T01:47:33.658Z,81.12
2023-06-26T01:48:33.545Z,81.52
2023-06-26T01:49:33.550Z,82.37
2023-06-26T01:50:33.579Z,81.56
2023-06-26T01:51:33.572Z,82.37
2023-06-26T01:52:33.557Z,82.06
2023-06-26T01:53:33.631Z,82.26
2023-06-26T01:54:33.486Z,81.87
2023-06-26T01:55:33.456Z,82.87
2023-06-26T01:56:33.434Z,82.57
2023-06-26T01:57:33.416Z,82.37
2023-06-26T01:58:33.440Z,83.67
2023-06-26T01:59:33.407Z,83.01
2023-06-26T02:00:33.409Z,83.11
2023-06-26T02:01:33.408Z,82.90
2023-06-26T02:02:33.445Z,84.01
2023-06-26T02:03:33.473Z,84.61
2023-06-26T02:04:33.365Z,84.11
2023-06-26T02:05:33.331Z,84.21
2023-06-26T02:06:33.321Z,84.31
2023-06-26T02:07:33.351Z,84.31
2023-06-26T02:08:33.315Z,84.81
2023-06-26T02:09:33.374Z,85.05
2023-06-26T02:10:33.318Z,84.15
2023-06-26T02:11:33.288Z,84.85
2023-06-26T02:12:33.351Z,84.75
2023-06-26T02:13:33.234Z,84.45
2023-06-26T02:14:33.261Z,84.45
2023-06-26T02:15:33.225Z,84.15
2023-06-26T02:16:33.265Z,83.85
2023-06-26T02:17:33.821Z,84.85
2023-06-26T02:18:33.203Z,85.05
2023-06-26T02:19:33.209Z,85.46
2023-06-26T02:20:33.263Z,85.46
2023-06-26T02:21:33.155Z,86.26
2023-06-26T02:22:33.162Z,86.30
2023-06-26T02:23:33.147Z,85.80
2023-06-26T02:24:33.157Z,86.50
2023-06-26T02:25:33.170Z,85.80
2023-06-26T02:26:33.099Z,86.50
2023-06-26T02:27:33.102Z,86.50
2023-06-26T02:28:33.120Z,87.10
2023-06-26T02:29:33.138Z,87.30
2023-06-26T02:30:33.064Z,86.70
2023-06-26T02:31:33.087Z,86.60
2023-06-26T02:32:33.046Z,86.80
2023-06-26T02:33:33.021Z,86.65
2023-06-26T02:34:33.049Z,86.14
2023-06-26T02:35:33.046Z,86.44
2023-06-26T02:36:33.064Z,86.14
2023-06-26T02:37:32.990Z,86.04
2023-06-26T02:38:33.017Z,87.24
2023-06-26T02:39:32.961Z,87.65
2023-06-26T02:40:32.970Z,86.94
2023-06-26T02:41:32.975Z,86.44
2023-06-26T02:42:32.887Z,86.94
2023-06-26T02:43:32.887Z,86.85
2023-06-26T02:44:32.901Z,87.35
2023-06-26T02:45:32.868Z,86.65
2023-06-26T02:46:32.923Z,86.65
2023-06-26T02:47:33.178Z,87.04
2023-06-26T02:48:32.856Z,87.24
2023-06-26T02:49:32.890Z,87.24
2023-06-26T02:50:33.134Z,87.65
2023-06-26T02:51:32.858Z,87.55
2023-06-26T02:52:32.811Z,87.24
2023-06-26T02:53:32.850Z,87.85
2023-06-26T02:54:32.763Z,87.24
2023-06-26T02:55:32.780Z,87.24
2023-06-26T02:56:32.766Z,87.65
2023-06-26T02:57:32.721Z,88.05
2023-06-26T02:58:32.715Z,87.65
2023-06-26T02:59:32.708Z,87.24
2023-06-26T03:00:32.727Z,86.94
2023-06-26T03:01:32.839Z,87.35
2023-06-26T03:02:32.714Z,88.15
2023-06-26T03:03:32.654Z,87.89
2023-06-26T03:04:32.754Z,87.85
2023-06-26T03:05:32.655Z,87.99
2023-06-26T03:06:32.696Z,88.09
2023-06-26T03:07:32.703Z,87.89
2023-06-26T03:08:32.620Z,87.79
2023-06-26T03:09:32.619Z,87.79
2023-06-26T03:10:32.682Z,88.29
2023-06-26T03:11:32.612Z,87.69
2023-06-26T03:12:32.624Z,87.99
2023-06-26T03:13:32.544Z,86.68
2023-06-26T03:14:32.545Z,87.49
2023-06-26T03:15:32.534Z,87.49
2023-06-26T03:16:32.574Z,87.19
2023-06-26T03:17:32.541Z,87.49
2023-06-26T03:18:32.541Z,87.89
2023-06-26T03:19:32.532Z,87.49
2023-06-26T03:20:32.522Z,87.08
2023-06-26T03:21:32.469Z,87.59
2023-06-26T03:22:32.479Z,87.59
2023-06-26T03:23:32.446Z,87.59
2023-06-26T03:24:32.489Z,88.49
2023-06-26T03:25:32.418Z,86.68
2023-06-26T03:26:32.466Z,87.39
2023-06-26T03:27:32.424Z,87.89
2023-06-26T03:28:32.409Z,87.69
2023-06-26T03:29:32.376Z,85.78
2023-06-26T03:30:32.412Z,85.53
2023-06-26T03:31:32.392Z,84.94
2023-06-26T03:32:32.507Z,84.39
2023-06-26T03:33:32.338Z,84.19
2023-06-26T03:34:32.344Z,84.09
2023-06-26T03:35:32.334Z,82.89
2023-06-26T03:36:32.340Z,82.75
2023-06-26T03:37:32.323Z,80.70
2023-06-26T03:38:32.314Z,79.80
2023-06-26T03:39:32.311Z,80.16
2023-06-26T03:40:32.312Z,79.25
2023-06-26T03:41:32.258Z,78.22
2023-06-26T03:42:32.255Z,77.81
2023-06-26T03:43:32.244Z,76.67
2023-06-26T03:44:32.249Z,76.17
2023-06-26T03:45:32.249Z,76.64
2023-06-26T03:46:32.297Z,75.93
2023-06-26T03:47:32.249Z,75.63
2023-06-26T03:48:32.242Z,75.63
2023-06-26T03:49:32.234Z,75.40
2023-06-26T03:50:32.175Z,75.84
2023-06-26T03:51:32.183Z,75.20
2023-06-26T03:52:32.168Z,74.90
2023-06-26T03:53:32.123Z,74.80
2023-06-26T03:54:32.180Z,74.90
2023-06-26T03:55:32.187Z,75.00
2023-06-26T03:56:32.137Z,75.30
2023-06-26T03:57:32.422Z,75.20
2023-06-26T03:58:32.091Z,75.90
2023-06-26T03:59:32.098Z,75.50
2023-06-26T04:00:32.084Z,75.60
2023-06-26T04:01:32.175Z,75.70
2023-06-26T04:02:32.091Z,75.70
2023-06-26T04:03:32.178Z,75.80
2023-06-26T04:04:32.075Z,75.80
2023-06-26T04:05:32.021Z,75.80
2023-06-26T04:06:32.010Z,75.50
2023-06-26T04:07:32.074Z,75.60
2023-06-26T04:08:31.977Z,75.60
2023-06-26T04:09:31.965Z,75.50
2023-06-26T04:10:31.956Z,75.40
2023-06-26T04:11:31.945Z,75.70
2023-06-26T04:12:31.969Z,75.90
2023-06-26T04:13:31.912Z,76.10
2023-06-26T04:14:31.929Z,76.40
2023-06-26T04:15:31.888Z,76.30
2023-06-26T04:16:31.911Z,76.40
2023-06-26T04:17:31.923Z,76.40
2023-06-26T04:18:31.885Z,76.60
2023-06-26T04:19:32.031Z,76.80
2023-06-26T04:20:31.859Z,76.80
2023-06-26T04:21:31.972Z,76.76
2023-06-26T04:22:31.862Z,76.56
2023-06-26T04:23:31.816Z,76.76
2023-06-26T04:24:32.010Z,77.06
2023-06-26T04:25:31.823Z,77.26
2023-06-26T04:26:31.809Z,76.76
2023-06-26T04:27:31.798Z,76.97
2023-06-26T04:28:31.794Z,76.67
2023-06-26T04:29:31.736Z,77.36
2023-06-26T04:30:31.742Z,77.17
2023-06-26T04:31:31.781Z,77.47
2023-06-26T04:32:32.111Z,77.17
2023-06-26T04:33:31.922Z,77.56
2023-06-26T04:34:31.768Z,77.47
2023-06-26T04:35:31.714Z,77.47
2023-06-26T04:36:31.842Z,77.47
2023-06-26T04:37:31.660Z,77.36
2023-06-26T04:38:31.659Z,77.47
2023-06-26T04:39:31.632Z,77.26
2023-06-26T04:40:31.628Z,77.56
2023-06-26T04:41:31.686Z,77.56
2023-06-26T04:42:31.643Z,77.67
2023-06-26T04:43:31.691Z,77.26
2023-06-26T04:44:31.599Z,77.47
2023-06-26T04:45:31.618Z,77.47
2023-06-26T04:46:31.631Z,77.47
2023-06-26T04:47:31.604Z,77.43
2023-06-26T04:48:31.600Z,77.63
2023-06-26T04:49:31.519Z,77.76
2023-06-26T04:50:31.556Z,77.67
2023-06-26T04:51:31.517Z,77.63
2023-06-26T04:52:31.506Z,77.63
2023-06-26T04:53:31.504Z,77.83
2023-06-26T04:54:31.504Z,77.83
2023-06-26T04:55:31.449Z,78.03
2023-06-26T04:56:31.453Z,78.13
2023-06-26T04:57:31.455Z,77.93
2023-06-26T04:58:31.594Z,78.23
2023-06-26T04:59:31.618Z,78.03
2023-06-26T05:00:31.389Z,78.43
2023-06-26T05:01:31.444Z,78.23
2023-06-26T05:02:31.454Z,78.33
2023-06-26T05:03:31.545Z,78.53
2023-06-26T05:04:31.519Z,78.43
2023-06-26T05:05:31.372Z,78.43
2023-06-26T05:06:31.341Z,78.23
2023-06-26T05:07:31.398Z,78.13
2023-06-26T05:08:31.304Z,78.63
2023-06-26T05:09:31.315Z,78.93
2023-06-26T05:10:31.424Z,78.13
2023-06-26T05:11:31.403Z,78.13
2023-06-26T05:12:31.290Z,78.23
2023-06-26T05:13:31.267Z,78.13
2023-06-26T05:14:31.321Z,77.83
2023-06-26T05:15:31.273Z,78.23
2023-06-26T05:16:31.216Z,77.93
2023-06-26T05:17:31.256Z,77.83
2023-06-26T05:18:31.199Z,78.13
2023-06-26T05:19:31.208Z,78.73
2023-06-26T05:20:31.243Z,78.33
2023-06-26T05:21:31.174Z,78.23
2023-06-26T05:22:31.160Z,78.63
2023-06-26T05:23:31.144Z,78.23
2023-06-26T05:24:31.255Z,78.33
2023-06-26T05:25:31.408Z,78.73
2023-06-26T05:26:31.284Z,78.23
2023-06-26T05:27:31.110Z,78.93
2023-06-26T05:28:31.113Z,79.03
2023-06-26T05:29:31.106Z,79.03
2023-06-26T05:30:31.115Z,78.59
2023-06-26T05:31:31.161Z,78.39
2023-06-26T05:32:31.087Z,78.49
2023-06-26T05:33:31.090Z,78.39
2023-06-26T05:34:31.076Z,78.39
2023-06-26T05:35:31.103Z,78.59
2023-06-26T05:36:32.016Z,78.23
2023-06-26T05:37:31.012Z,78.09
2023-06-26T05:38:31.048Z,78.29
2023-06-26T05:39:30.989Z,77.89
2023-06-26T05:40:31.017Z,78.19
2023-06-26T05:41:31.002Z,78.29
2023-06-26T05:42:30.946Z,78.39
2023-06-26T05:43:31.065Z,78.59
2023-06-26T05:44:31.359Z,78.19
2023-06-26T05:45:30.945Z,77.59
2023-06-26T05:46:30.920Z,77.69
2023-06-26T05:47:31.004Z,78.09
2023-06-26T05:48:30.930Z,77.69
2023-06-26T05:49:31.415Z,77.59
2023-06-26T05:50:30.878Z,77.69
2023-06-26T05:51:30.862Z,77.86
2023-06-26T05:52:30.894Z,77.75
2023-06-26T05:53:30.883Z,77.56
2023-06-26T05:54:30.843Z,77.86
2023-06-26T05:55:30.999Z,77.25
2023-06-26T05:56:30.817Z,77.45
2023-06-26T05:57:30.803Z,77.22
2023-06-26T05:58:30.814Z,76.82
2023-06-26T05:59:30.781Z,76.42
2023-06-26T06:00:30.768Z,76.52
2023-06-26T06:01:30.795Z,76.22
2023-06-26T06:02:32.002Z,76.12
2023-06-26T06:03:30.893Z,76.62
2023-06-26T06:04:30.719Z,76.42
2023-06-26T06:05:30.724Z,76.82
2023-06-26T06:06:30.755Z,76.92
2023-06-26T06:07:30.746Z,76.62
2023-06-26T06:08:30.774Z,76.82
2023-06-26T06:09:30.727Z,77.32
2023-06-26T06:10:30.656Z,77.15
2023-06-26T06:11:30.668Z,77.86
2023-06-26T06:12:30.640Z,77.29
2023-06-26T06:13:30.675Z,77.89
2023-06-26T06:14:30.666Z,78.09
2023-06-26T06:15:31.290Z,78.19
2023-06-26T06:16:30.615Z,78.49
2023-06-26T06:17:30.635Z,78.39
2023-06-26T06:18:30.568Z,78.73
2023-06-26T06:19:30.582Z,78.79
2023-06-26T06:20:30.575Z,78.49
2023-06-26T06:21:30.566Z,78.99
2023-06-26T06:22:30.530Z,78.55
2023-06-26T06:23:30.765Z,77.95
2023-06-26T06:24:31.022Z,78.05
2023-06-26T06:25:30.570Z,77.95
2023-06-26T06:26:30.486Z,77.66
2023-06-26T06:27:30.516Z,78.55
2023-06-26T06:28:30.492Z,78.55
2023-06-26T06:29:30.470Z,77.51
2023-06-26T06:30:44.344Z,77.12
2023-06-26T06:31:30.472Z,77.18
2023-06-26T06:32:30.471Z,76.88
2023-06-26T06:33:30.433Z,77.42
2023-06-26T06:34:30.411Z,77.36
2023-06-26T06:35:30.861Z,78.36
2023-06-26T06:36:30.417Z,78.05
2023-06-26T06:37:30.381Z,77.72
2023-06-26T06:38:30.361Z,77.12
2023-06-26T06:39:30.358Z,76.82
2023-06-26T06:40:30.359Z,77.32
2023-06-26T06:41:30.375Z,77.38
2023-06-26T06:42:30.338Z,77.38
2023-06-26T06:43:30.324Z,77.42
2023-06-26T06:44:30.303Z,77.72
2023-06-26T06:45:30.411Z,77.75
2023-06-26T06:46:30.289Z,78.36
2023-06-26T06:47:30.409Z,78.16
2023-06-26T06:48:30.252Z,78.96
2023-06-26T06:49:30.269Z,78.99
2023-06-26T06:50:30.251Z,79.49
2023-06-26T06:51:30.219Z,80.09
2023-06-26T06:52:30.283Z,80.29
2023-06-26T06:53:30.210Z,80.19
2023-06-26T06:54:30.196Z,79.29
2023-06-26T06:55:30.181Z,79.69
2023-06-26T06:56:30.178Z,79.63
2023-06-26T06:57:30.274Z,79.59
2023-06-26T06:58:30.143Z,79.39
2023-06-26T06:59:30.148Z,78.75
2023-06-26T07:00:30.169Z,79.46
2023-06-26T07:01:30.216Z,79.35
2023-06-26T07:02:30.145Z,78.75
2023-06-26T07:03:30.228Z,78.96
2023-06-26T07:04:30.067Z,79.11
2023-06-26T07:05:30.093Z,78.92
2023-06-26T07:06:30.131Z,78.55
2023-06-26T07:07:31.473Z,78.55
2023-06-26T07:08:30.039Z,79.05
2023-06-26T07:09:30.065Z,78.55
2023-06-26T07:10:30.276Z,79.22
2023-06-26T07:11:30.037Z,78.31
2023-06-26T07:12:30.041Z,78.52
2023-06-26T07:13:30.017Z,77.72
2023-06-26T07:14:30.127Z,77.42
2023-06-26T07:15:29.969Z,77.28
2023-06-26T07:16:30.215Z,76.58
2023-06-26T07:17:29.971Z,76.58
2023-06-26T07:18:29.978Z,77.08
2023-06-26T07:19:29.939Z,77.48
2023-06-26T07:20:30.028Z,76.34
2023-06-26T07:21:29.922Z,76.04
2023-06-26T07:22:30.154Z,76.71
2023-06-26T07:23:29.900Z,75.91
2023-06-26T07:24:29.860Z,75.11
2023-06-26T07:25:29.866Z,75.41
2023-06-26T07:26:43.838Z,75.31
2023-06-26T07:27:29.934Z,75.21
2023-06-26T07:28:29.882Z,74.62
2023-06-26T07:29:29.821Z,74.08
2023-06-26T07:30:29.823Z,74.71
2023-06-26T07:31:29.896Z,74.32
2023-06-26T07:32:29.797Z,74.81
2023-06-26T07:33:29.815Z,74.88
2023-06-26T07:34:29.877Z,74.38
2023-06-26T07:35:29.783Z,74.21
2023-06-26T07:36:29.760Z,74.77
2023-06-26T07:37:29.878Z,73.68
2023-06-26T07:38:29.730Z,74.68
2023-06-26T07:39:30.112Z,73.58
2023-06-26T07:40:29.714Z,72.49
2023-06-26T07:41:29.733Z,73.08
2023-06-26T07:42:29.731Z,72.88
2023-06-26T07:43:29.707Z,73.58
2023-06-26T07:44:29.650Z,74.15
2023-06-26T07:45:29.660Z,72.45
2023-06-26T07:46:29.948Z,73.05
2023-06-26T07:47:29.668Z,72.95
2023-06-26T07:48:29.600Z,72.35
2023-06-26T07:49:29.652Z,72.41
2023-06-26T07:50:29.706Z,72.61
2023-06-26T07:51:29.596Z,72.52
2023-06-26T07:52:29.566Z,73.01
2023-06-26T07:53:29.585Z,72.28
2023-06-26T07:54:29.865Z,71.92
2023-06-26T07:55:29.570Z,72.31
2023-06-26T07:56:29.524Z,71.88
2023-06-26T07:57:29.522Z,71.78
2023-06-26T07:58:29.617Z,71.58
2023-06-26T07:59:29.490Z,70.79
2023-06-26T08:00:29.793Z,70.65
2023-06-26T08:01:29.490Z,70.45
2023-06-26T08:02:29.482Z,70.49
2023-06-26T08:03:34.854Z,71.48
2023-06-26T08:04:29.604Z,71.45
2023-06-26T08:05:29.605Z,71.19
2023-06-26T08:06:29.510Z,71.78
2023-06-26T08:07:29.438Z,72.58
2023-06-26T08:08:29.398Z,72.25
2023-06-26T08:09:29.420Z,71.58
2023-06-26T08:10:29.400Z,71.88
2023-06-26T08:11:29.386Z,71.69
2023-06-26T08:12:29.350Z,71.98
2023-06-26T08:13:29.354Z,72.41
2023-06-26T08:14:29.335Z,72.31
2023-06-26T08:15:29.421Z,72.22
2023-06-26T08:16:29.316Z,71.35
2023-06-26T08:17:30.604Z,71.72
2023-06-26T08:18:29.286Z,71.62
2023-06-26T08:19:29.285Z,71.62
2023-06-26T08:20:29.318Z,71.69
2023-06-26T08:21:29.253Z,69.79
2023-06-26T08:22:29.241Z,69.66
2023-06-26T08:23:29.234Z,69.76
2023-06-26T08:24:29.209Z,70.45
2023-06-26T08:25:29.277Z,70.85
2023-06-26T08:26:29.193Z,68.60
2023-06-26T08:27:29.209Z,69.29
2023-06-26T08:28:29.183Z,69.32
2023-06-26T08:29:29.189Z,70.29
2023-06-26T08:30:29.248Z,69.73
2023-06-26T08:31:29.186Z,69.20
2023-06-26T08:32:29.193Z,69.73
2023-06-26T08:33:29.509Z,71.12
2023-06-26T08:34:29.189Z,70.19
2023-06-26T08:35:29.112Z,68.07
2023-06-26T08:36:29.202Z,66.84
2023-06-26T08:37:29.365Z,66.94
2023-06-26T08:38:29.075Z,65.64
2023-06-26T08:39:29.074Z,65.84
2023-06-26T08:40:29.043Z,67.33
2023-06-26T08:41:29.102Z,66.57
2023-06-26T08:42:29.310Z,67.17
2023-06-26T08:43:29.033Z,67.77
2023-06-26T08:44:29.022Z,68.76
2023-06-26T08:45:29.062Z,68.37
2023-06-26T08:46:29.084Z,68.40
2023-06-26T08:47:29.064Z,68.03
2023-06-26T08:48:28.975Z,67.54
2023-06-26T08:49:29.180Z,68.53
2023-06-26T08:50:28.953Z,68.86
2023-06-26T08:51:28.966Z,68.53
2023-06-26T08:52:30.568Z,69.13
2023-06-26T08:53:28.952Z,69.29
2023-06-26T08:54:28.907Z,68.53
2023-06-26T08:55:28.950Z,67.40
2023-06-26T08:56:28.889Z,66.31
2023-06-26T08:57:28.926Z,66.91
2023-06-26T08:58:28.883Z,66.28
2023-06-26T08:59:28.908Z,65.78
2023-06-26T09:00:29.891Z,65.31
2023-06-26T09:01:28.858Z,65.12
2023-06-26T09:02:29.314Z,65.45
2023-06-26T09:03:29.091Z,63.89
2023-06-26T09:04:28.881Z,63.89
2023-06-26T09:05:28.834Z,64.12
2023-06-26T09:06:28.788Z,64.03
2023-06-26T09:07:28.956Z,63.95
2023-06-26T09:08:28.814Z,64.18
2023-06-26T09:09:28.826Z,65.58
2023-06-26T09:10:28.754Z,64.69
2023-06-26T09:11:28.968Z,63.85
2023-06-26T09:12:28.737Z,64.29
2023-06-26T09:13:30.313Z,63.49
2023-06-26T09:14:28.964Z,63.53
2023-06-26T09:15:28.734Z,64.49
2023-06-26T09:16:28.775Z,63.79
2023-06-26T09:17:28.718Z,63.82
2023-06-26T09:18:28.694Z,63.73
2023-06-26T09:19:28.657Z,62.53
2023-06-26T09:20:28.650Z,64.29
2023-06-26T09:21:28.682Z,63.86
2023-06-26T09:22:28.656Z,63.73
2023-06-26T09:23:28.647Z,61.62
2023-06-26T09:24:28.652Z,60.60
2023-06-26T09:25:28.605Z,59.23
2023-06-26T09:26:28.662Z,59.31
2023-06-26T09:27:28.576Z,60.27
2023-06-26T09:28:28.804Z,59.45
2023-06-26T09:29:28.587Z,58.29
2023-06-26T09:30:28.578Z,58.61
2023-06-26T09:31:40.593Z,58.47
2023-06-26T09:32:28.615Z,59.59
2023-06-26T09:33:28.552Z,60.78
2023-06-26T09:34:28.522Z,59.03
2023-06-26T09:35:28.533Z,58.30
2023-06-26T09:36:28.503Z,58.77
2023-06-26T09:37:28.481Z,58.10
2023-06-26T09:38:28.491Z,59.09
2023-06-26T09:39:28.474Z,58.20
2023-06-26T09:40:28.491Z,59.19
2023-06-26T09:41:28.547Z,58.60
2023-06-26T09:42:28.464Z,59.56
2023-06-26T09:43:28.423Z,58.47
2023-06-26T09:44:28.409Z,57.15
2023-06-26T09:45:28.403Z,57.45
2023-06-26T09:46:28.620Z,56.83
2023-06-26T09:47:28.372Z,56.90
2023-06-26T09:48:28.350Z,56.90
2023-06-26T09:49:28.348Z,56.51
2023-06-26T09:50:28.672Z,55.44
2023-06-26T09:51:28.358Z,56.46
2023-06-26T09:52:28.343Z,56.34
2023-06-26T09:53:28.298Z,55.04
2023-06-26T09:54:28.320Z,55.96
2023-06-26T09:55:28.271Z,56.38
2023-06-26T09:56:28.296Z,57.60
2023-06-26T09:57:28.286Z,57.28
2023-06-26T09:58:28.256Z,56.88
2023-06-26T09:59:28.255Z,56.66
2023-06-26T10:00:28.351Z,55.36
2023-06-26T10:01:28.495Z,57.62
2023-06-26T10:02:28.337Z,55.02
2023-06-26T10:03:28.261Z,55.09
2023-06-26T10:04:28.266Z,54.37
2023-06-26T10:05:28.172Z,55.19
2023-06-26T10:06:28.169Z,55.24
2023-06-26T10:07:28.250Z,56.04
2023-06-26T10:08:28.130Z,55.36
2023-06-26T10:09:29.616Z,56.09
2023-06-26T10:10:28.176Z,57.18
2023-06-26T10:11:28.135Z,57.21
2023-06-26T10:12:28.135Z,58.10
2023-06-26T10:13:28.076Z,57.73
2023-06-26T10:14:28.095Z,58.36
2023-06-26T10:15:28.146Z,58.98
2023-06-26T10:16:28.548Z,59.70
2023-06-26T10:17:28.209Z,59.41
2023-06-26T10:18:28.030Z,58.65
2023-06-26T10:19:28.008Z,57.93
2023-06-26T10:20:28.058Z,56.41
2023-06-26T10:21:28.036Z,55.52
2023-06-26T10:22:27.985Z,56.78
2023-06-26T10:23:28.496Z,56.04
2023-06-26T10:24:27.950Z,54.42
2023-06-26T10:25:28.037Z,54.62
2023-06-26T10:26:27.947Z,53.85
2023-06-26T10:27:27.949Z,53.45
2023-06-26T10:28:27.913Z,55.02
2023-06-26T10:29:27.902Z,55.19
2023-06-26T10:30:27.957Z,53.58
2023-06-26T10:31:27.957Z,54.05
2023-06-26T10:32:27.899Z,52.73
2023-06-26T10:33:27.922Z,52.64
2023-06-26T10:34:27.889Z,53.28
2023-06-26T10:35:27.848Z,54.10
2023-06-26T10:36:27.856Z,53.43
2023-06-26T10:37:27.815Z,55.69
2023-06-26T10:38:27.837Z,56.91
2023-06-26T10:39:27.856Z,57.14
2023-06-26T10:40:27.998Z,55.82
2023-06-26T10:41:28.025Z,56.19
2023-06-26T10:42:27.770Z,56.16
2023-06-26T10:43:27.797Z,57.59
2023-06-26T10:44:28.730Z,54.10
2023-06-26T10:45:27.730Z,53.88
2023-06-26T10:46:27.798Z,52.66
2023-06-26T10:47:27.893Z,53.82
2023-06-26T10:48:27.718Z,50.36
2023-06-26T10:49:27.691Z,50.29
2023-06-26T10:50:27.718Z,50.88
2023-06-26T10:51:27.661Z,51.77
2023-06-26T10:52:27.662Z,52.24
2023-06-26T10:53:27.742Z,52.01
2023-06-26T10:54:27.661Z,52.09
2023-06-26T10:55:27.622Z,50.90
2023-06-26T10:56:27.605Z,49.37
2023-06-26T10:57:28.717Z,48.02
2023-06-26T10:58:27.665Z,49.82
2023-06-26T10:59:27.988Z,50.26
2023-06-26T11:00:27.579Z,50.71
2023-06-26T11:01:27.642Z,50.88
2023-06-26T11:02:27.564Z,51.42
2023-06-26T11:03:27.554Z,53.73
2023-06-26T11:04:27.581Z,53.86
2023-06-26T11:05:27.516Z,55.35
2023-06-26T11:06:27.519Z,57.24
2023-06-26T11:07:27.597Z,56.57
2023-06-26T11:08:27.531Z,56.67
2023-06-26T11:09:27.524Z,56.79
2023-06-26T11:10:27.483Z,56.89
2023-06-26T11:11:27.454Z,58.28
2023-06-26T11:12:27.445Z,56.89
2023-06-26T11:13:27.453Z,56.79
2023-06-26T11:14:27.471Z,56.87
2023-06-26T11:15:27.408Z,56.14
2023-06-26T11:16:27.428Z,55.55
2023-06-26T11:17:27.662Z,56.32
2023-06-26T11:18:27.387Z,55.79
2023-06-26T11:19:27.385Z,54.68
2023-06-26T11:20:27.361Z,52.96
2023-06-26T11:21:27.350Z,52.44
2023-06-26T11:22:27.347Z,52.12
2023-06-26T11:23:27.328Z,50.53
2023-06-26T11:24:27.322Z,52.29
2023-06-26T11:25:27.306Z,51.10
2023-06-26T11:26:27.291Z,51.07
2023-06-26T11:27:27.264Z,50.73
2023-06-26T11:28:27.322Z,49.44
2023-06-26T11:29:27.291Z,49.37
2023-06-26T11:30:27.442Z,49.91
2023-06-26T11:31:27.307Z,51.28
2023-06-26T11:32:27.262Z,51.42
2023-06-26T11:33:27.225Z,52.34
2023-06-26T11:34:27.244Z,53.26
2023-06-26T11:35:27.278Z,54.87
2023-06-26T11:36:27.176Z,53.98
2023-06-26T11:37:27.179Z,55.47
2023-06-26T11:38:27.230Z,53.51
2023-06-26T11:39:27.135Z,53.41
2023-06-26T11:40:27.163Z,53.14
2023-06-26T11:41:27.127Z,54.65
2023-06-26T11:42:27.113Z,52.34
2023-06-26T11:43:27.113Z,51.79
2023-06-26T11:44:27.125Z,50.58
2023-06-26T11:45:27.107Z,50.23
2023-06-26T11:46:27.077Z,49.89
2023-06-26T11:47:27.130Z,50.01
2023-06-26T11:48:27.174Z,47.37
2023-06-26T11:49:27.135Z,49.13
2023-06-26T11:50:27.057Z,48.49
2023-06-26T11:51:27.023Z,49.13
2023-06-26T11:52:27.048Z,46.64
2023-06-26T11:53:27.010Z,45.83
2023-06-26T11:54:27.023Z,45.14
2023-06-26T11:55:27.050Z,44.84
2023-06-26T11:56:26.983Z,47.33
2023-06-26T11:57:27.057Z,44.67
2023-06-26T11:58:26.986Z,46.39
2023-06-26T11:59:26.979Z,48.24
2023-06-26T12:00:26.982Z,47.16
2023-06-26T12:01:26.947Z,45.08
2023-06-26T12:02:26.974Z,44.71
2023-06-26T12:03:27.187Z,44.22
2023-06-26T12:04:27.100Z,43.37
2023-06-26T12:05:27.020Z,42.92
2023-06-26T12:06:26.897Z,41.87
2023-06-26T12:07:26.963Z,43.48
2023-06-26T12:08:26.852Z,43.30
2023-06-26T12:09:26.842Z,43.20
2023-06-26T12:10:26.891Z,45.45
2023-06-26T12:11:28.439Z,43.38
2023-06-26T12:12:26.797Z,42.36
2023-06-26T12:13:26.803Z,41.87
2023-06-26T12:14:26.886Z,42.94
2023-06-26T12:15:26.820Z,43.04
2023-06-26T12:16:26.772Z,42.43
2023-06-26T12:17:26.797Z,44.18
2023-06-26T12:18:26.761Z,41.39
2023-06-26T12:19:26.784Z,43.37
2023-06-26T12:20:26.790Z,41.89
2023-06-26T12:21:28.707Z,42.50
2023-06-26T12:22:26.731Z,42.29
2023-06-26T12:23:26.861Z,40.98
2023-06-26T12:24:26.754Z,40.48
2023-06-26T12:25:26.682Z,41.17
2023-06-26T12:26:26.742Z,40.98
2023-06-26T12:27:26.665Z,41.57
2023-06-26T12:28:27.145Z,41.61
2023-06-26T12:29:26.647Z,41.57
2023-06-26T12:30:26.734Z,39.78
2023-06-26T12:31:26.612Z,39.28
2023-06-26T12:32:26.780Z,39.44
2023-06-26T12:33:26.607Z,41.59
2023-06-26T12:34:26.583Z,42.36
2023-06-26T12:35:26.563Z,42.38
2023-06-26T12:36:26.602Z,43.16
2023-06-26T12:37:26.560Z,44.76
2023-06-26T12:38:26.560Z,42.62
2023-06-26T12:39:26.520Z,43.85
2023-06-26T12:40:26.669Z,44.82
2023-06-26T12:41:26.522Z,45.19
2023-06-26T12:42:26.520Z,45.59
2023-06-26T12:43:26.720Z,45.01
2023-06-26T12:44:26.496Z,44.27
2023-06-26T12:45:31.649Z,44.59
2023-06-26T12:46:26.484Z,45.12
2023-06-26T12:47:26.499Z,45.34
2023-06-26T12:48:26.429Z,46.06
2023-06-26T12:49:31.655Z,46.76
2023-06-26T12:50:26.416Z,47.05
2023-06-26T12:51:26.406Z,45.94
2023-06-26T12:52:26.430Z,46.02